METAR v bližini

 

LIPQ - Ronchi Legionari, Italy
Oddaljenost od postaje: JZ 35km
Podatki zajeti: 15/10/2018 16:20
Pretežno oblačno
Pretežno oblačno
 Veter iz smeri SSV
Veter: SSV 4 km/h
Temperatura: 19°C
Temp. rosišča: 13°C
Vlažnost: 68%
Tlak: 1019 hPa
Oblačnost: Pretežno oblačno
Vidljivost: 10 km
Podrobnosti o oblakih: Delno oblačno 1219 m
Pretežno oblačno 1981 m
2018/10/15 14:20 LIPQ 151420Z 03002KT 9999 SCT040 BKN065 19/13 Q1019
LIVT - Trieste, Italy
Oddaljenost od postaje: J 49km
Podatki zajeti: 15/10/2018 15:55
Pretežno oblačno
Pretežno oblačno
 Veter iz smeri SV
Veter: SV 6 km/h
Temperatura: 21°C
Temp. rosišča: 13°C
Vlažnost: 60%
Tlak: 1019 hPa
Oblačnost: Pretežno oblačno
Vidljivost: 10 km
Podrobnosti o oblakih: Pretežno oblačno 1219 m
2018/10/15 13:55 LIVT 151355Z 05003KT 9999 BKN040 21/13 Q1019 RMK OVC QUK 2 QUL 1 NE VIS MAR 10 KM VIS MIN 9999
 
LIVO - Tarvisio, Italy
Oddaljenost od postaje: SSZ 49km
Podatki zajeti: 15/10/2018 15:55
Oblačno
Oblačno
 Veter iz smeri calm
Veter: Tišina
Temperatura: 11°C
Temp. rosišča: 9°C
Vlažnost: 88%
Tlak: 1021 hPa
Oblačnost: Oblačno
Vidljivost: 10 km
Podrobnosti o oblakih: Oblačno 914 m
2018/10/15 13:55 LIVO 151355Z 00000KT 9999 OVC030 11/09 Q1021 RMK OVC VIS MIN 9999
LIPI - Rivolto (it-Afb), Italy
Oddaljenost od postaje: ZJZ 57km
Podatki zajeti: 15/10/2018 15:55
Rahlo dežuje, Delno oblačno
Rahlo dežuje, Delno oblačno
 Veter iz smeri spremenljiv
Veter: spremenljiv 0 km/h
Temperatura: 17°C
Temp. rosišča: 14°C
Vlažnost: 83%
Tlak: 1019 hPa
Stanje: Rahlo dežuje
Oblačnost: Delno oblačno
Vidljivost: 10 km
Podrobnosti o oblakih: Delno oblačno 762 m
Delno oblačno 1524 m
2018/10/15 13:55 LIPI 151355Z /////KT 9999 -RA SCT025 SCT050 17/14 Q1019 RMK OVC VIS MIN 9999 WIND THR06 04006KT WIND THR24 03005KT BLU
 
LJLJ - Ljubljana/Brnik, Slovenia
Oddaljenost od postaje: VSV 59km
Podatki zajeti: 15/10/2018 16:30
Pretežno oblačno
Pretežno oblačno
 Veter iz smeri SSZ
Veter: SSZ 2 km/h
Temperatura: 12°C
Temp. rosišča: 11°C
Vlažnost: 94%
Tlak: 1022 hPa
Oblačnost: Pretežno oblačno
Vidljivost: 10 km
Podrobnosti o oblakih: Rahlo oblačno 213 m
Pretežno oblačno 2286 m
Pretežno oblačno 2896 m
2018/10/15 14:30 LJLJ 151430Z 33001KT 9999 FEW007 BKN075 BKN095 12/11 Q1022 NOSIG
LJPZ - Portoroz, Slovenia
Oddaljenost od postaje: J 68km
Podatki zajeti: 15/10/2018 16:30
Oblačno
Oblačno
 Veter iz smeri JJZ
Veter: JJZ 2 km/h
Temperatura: 20°C
Temp. rosišča: 14°C
Vlažnost: 69%
Tlak: 1019 hPa
Oblačnost: Oblačno
Vidljivost: 10 km
Podrobnosti o oblakih: Rahlo oblačno 1829 m
Oblačno 2438 m
2018/10/15 14:30 LJPZ 151430Z 20001KT 9999 FEW060 OVC080 20/14 Q1019
 
LOWK - Klagenfurt(Civ/M, Austria
Oddaljenost od postaje: SV 78km
Podatki zajeti: 15/10/2018 16:20
Pretežno oblačno
Pretežno oblačno
 Veter iz smeri spremenljiv
Veter: spremenljiv 4 km/h
Temperatura: 12°C
Temp. rosišča: 10°C
Vlažnost: 88%
Tlak: 1022 hPa
Oblačnost: Pretežno oblačno
Vidljivost: 10 km
Podrobnosti o oblakih: Rahlo oblačno 610 m
Delno oblačno 1829 m
Pretežno oblačno 2743 m
2018/10/15 14:20 LOWK 151420Z VRB02KT 9999 FEW020 SCT060 BKN090 12/10 Q1022 NOSIG
LIYW - Aviano (usaf), Italy
Oddaljenost od postaje: Z 86km
Podatki zajeti: 20/10/2015 15:58
Ni posodobljen
Jasno
Jasno
 Veter iz smeri JJZ
Veter: JJZ 6 km/h
Temperatura: 17°C
Temp. rosišča: 3°C
Vlažnost: 39%
Tlak: 1016.3 hPa
Oblačnost: Jasno
Vidljivost: 10 km
2015/10/20 13:58 LIYW 201358Z AUTO 21003KT 9999 CLR 17/03 A3001 RMK AO2 SLP167 T01660029
 
LIPA - Aviano (it/Us-Af, Italy
Oddaljenost od postaje: Z 89km
Podatki zajeti: 15/10/2018 15:55
Delno oblačno
Delno oblačno
 Veter iz smeri VSV
Veter: VSV 9 km/h
Temperatura: 20°C
Temp. rosišča: 12°C
Vlažnost: 60%
Tlak: 1019 hPa
Oblačnost: Delno oblačno
Vidljivost: 10 km
Podrobnosti o oblakih: Delno oblačno 1524 m
Delno oblačno 2743 m
2018/10/15 13:55 LIPA 151355Z 06005KT 9999 SCT050 SCT090 20/12 Q1019 RMK BKN VIS MIN 9999 WIND THR05 /////KT WIND THR23 /////KT A3012 BLU
LDRI - Rijeka/Omisalj, Croatia
Oddaljenost od postaje: JV 115km
Podatki zajeti: 15/10/2018 16:30
Pretežno oblačno
Pretežno oblačno
 Veter iz smeri spremenljiv
Veter: spremenljiv 2 km/h
Temperatura: 18°C
Temp. rosišča: 13°C
Vlažnost: 73%
Tlak: 1020 hPa
Oblačnost: Pretežno oblačno
Vidljivost: 10 km
Podrobnosti o oblakih: Rahlo oblačno 1097 m
Delno oblačno 1524 m
Pretežno oblačno 2195 m
2018/10/15 14:30 LDRI 151430Z VRB01KT 9999 FEW036 SCT050 BKN072 18/13 Q1020
 
LIPZ - Venezia/Tessera, Italy
Oddaljenost od postaje: ZJZ 127km
Podatki zajeti: 15/10/2018 16:20
Jasno
Jasno
 Veter iz smeri VSV
Veter: VSV 13 km/h
Temperatura: 20°C
Temp. rosišča: 14°C
Vlažnost: 69%
Tlak: 1019 hPa
Stanje: Jasno
Vidljivost: večja od 10 km
2018/10/15 14:20 LIPZ 151420Z 06007KT CAVOK 20/14 Q1019 NOSIG
LDPL - Pula, Croatia
Oddaljenost od postaje: J 133km
Podatki zajeti: 15/10/2018 16:30
Delno oblačno
Delno oblačno
 Veter iz smeri V
Veter: V 17 km/h
Temperatura: 19°C
Temp. rosišča: 13°C
Vlažnost: 68%
Tlak: 1019 hPa
Oblačnost: Delno oblačno
Vidljivost: 10 km
Podrobnosti o oblakih: Rahlo oblačno 1067 m
Delno oblačno 1768 m
2018/10/15 14:30 LDPL 151430Z 08009KT 9999 FEW035 SCT058 19/13 Q1019 NOSIG
 
LIPS - Istrana (it-Afb), Italy
Oddaljenost od postaje: ZJZ 136km
Podatki zajeti: 15/10/2018 15:55
Pretežno oblačno
Pretežno oblačno
 Veter iz smeri SV
Veter: SV 11 km/h
Temperatura: 20°C
Temp. rosišča: 14°C
Vlažnost: 69%
Tlak: 1019 hPa
Oblačnost: Pretežno oblačno
Vidljivost: 10 km
Podrobnosti o oblakih: Pretežno oblačno 2438 m
2018/10/15 13:55 LIPS 151355Z 05006KT 9999 BKN080 20/14 Q1019 RMK BKN VIS MIN 9999 WIND THR26 05007KT WIND THR08 08007KT BLU
LIVD - Dobbiaco, Italy
Oddaljenost od postaje: ZSZ 137km
Podatki zajeti: 15/10/2018 15:55

 
2018/10/15 13:55 LIVD 151355Z ///07KT 9999 FEW030 SCT040 12/08 Q1022 RMK BKN VIS MIN 9999
 
LJCE - Cerklje, Slovenia
Oddaljenost od postaje: V 139km
Podatki zajeti: 15/10/2018 16:30
Delno oblačno
Delno oblačno
 Veter iz smeri ZJZ
Veter: ZJZ 6 km/h
Temperatura: 15°C
Temp. rosišča: 11°C
Vlažnost: 77%
Tlak: 1022 hPa
Oblačnost: Delno oblačno
Vidljivost: 10 km
2018/10/15 14:30 LJCE 151430Z AUTO 24003KT 9999 NSC 15/11 Q1022
LOXZ - Zeltweg (mil), Austria
Oddaljenost od postaje: SSV 147km
Podatki zajeti: 15/10/2018 16:20
Pretežno oblačno
Pretežno oblačno
 Veter iz smeri spremenljiv
Veter: spremenljiv 2 km/h
Temperatura: 13°C
Temp. rosišča: 7°C
Vlažnost: 67%
Tlak: 1021 hPa
Oblačnost: Pretežno oblačno
Podrobnosti o oblakih: Rahlo oblačno 914 m
Delno oblačno 2286 m
Pretežno oblačno 3353 m
2018/10/15 14:20 LOXZ 151420Z VRB01KT 15KM FEW030SC SCT075SC BKN110AC 13/07 Q1021 NOSIG